Time,TemperatureF,DewpointF,PressureIn,WindDirection,WindDirectionDegrees,WindSpeedMPH,WindSpeedGustMPH,Humidity,HourlyPrecipIn,Conditions,Clouds,dailyrainin,SoftwareType,DateUTC
2013-02-19 03:40:00,43.9,34.8,29.84,SSW,206,6.0,13.0,70,0.01,,---,0.01,VWS V14.01,2013-02-19 08:40:00,
2013-02-19 03:50:00,44.8,34.9,29.82,SSW,206,8.0,24.0,68,0.01,,---,0.02,VWS V14.01,2013-02-19 08:50:00,
2013-02-19 04:00:00,44.6,34.7,29.81,WSW,249,8.0,15.0,68,0.01,,---,0.02,VWS V14.01,2013-02-19 09:00:00,
2013-02-19 04:10:00,44.8,34.2,29.80,South,186,8.0,17.0,66,0.01,,---,0.02,VWS V14.01,2013-02-19 09:10:00,
2013-02-19 04:20:00,45.2,34.2,29.79,SSW,210,2.0,20.0,65,0.01,,---,0.02,VWS V14.01,2013-02-19 09:20:00,
2013-02-19 04:30:00,45.4,33.2,29.79,SW,223,20.0,20.0,62,0.01,,---,0.02,VWS V14.01,2013-02-19 09:30:00,
2013-02-19 04:36:00,43.4,35.0,29.84,WSW,250,7.0,7.0,72,0.00,,---,0.01,VWS V14.01,2013-02-19 09:36:00,
2013-02-19 04:37:00,43.7,34.6,29.84,WSW,256,4.0,13.0,70,0.01,,---,0.01,VWS V14.01,2013-02-19 09:37:00,
2013-02-19 04:40:00,43.9,34.8,29.84,SSW,206,6.0,13.0,70,0.01,,---,0.01,VWS V14.01,2013-02-19 09:40:00,
2013-02-19 04:42:00,44.1,34.6,29.83,SSW,210,10.0,12.0,69,0.00,,---,0.01,VWS V14.01,2013-02-19 09:42:00,
2013-02-19 04:47:00,44.7,34.8,29.82,SW,225,7.0,24.0,68,0.01,,---,0.02,VWS V14.01,2013-02-19 09:47:00,
2013-02-19 04:50:00,44.8,34.9,29.82,SSW,206,8.0,24.0,68,0.01,,---,0.02,VWS V14.01,2013-02-19 09:50:00,
2013-02-19 04:52:00,44.8,34.9,29.82,NW,326,6.0,15.0,68,0.01,,---,0.02,VWS V14.01,2013-02-19 09:52:00,
2013-02-19 04:57:00,44.7,34.8,29.81,SW,226,2.0,15.0,68,0.01,,---,0.02,VWS V14.01,2013-02-19 09:57:00,
2013-02-19 05:00:00,44.6,34.7,29.81,WSW,249,8.0,15.0,68,0.01,,---,0.02,VWS V14.01,2013-02-19 10:00:00,
2013-02-19 05:02:00,44.5,35.0,29.81,WSW,249,8.0,10.0,69,0.01,,---,0.02,VWS V14.01,2013-02-19 10:02:00,
2013-02-19 05:07:00,44.6,34.7,29.80,SW,236,15.0,16.0,68,0.01,,---,0.02,VWS V14.01,2013-02-19 10:07:00,
2013-02-19 05:10:00,44.8,34.2,29.80,South,186,8.0,17.0,66,0.01,,---,0.02,VWS V14.01,2013-02-19 10:10:00,
2013-02-19 05:12:00,45.0,34.0,29.80,South,188,10.0,20.0,65,0.01,,---,0.02,VWS V14.01,2013-02-19 10:12:00,
2013-02-19 05:17:00,45.2,34.2,29.80,SW,229,6.0,20.0,65,0.01,,---,0.02,VWS V14.01,2013-02-19 10:17:00,
2013-02-19 05:20:00,45.2,34.2,29.79,SSW,210,2.0,20.0,65,0.01,,---,0.02,VWS V14.01,2013-02-19 10:20:00,
2013-02-19 05:22:00,45.2,34.2,29.79,SW,234,10.0,12.0,65,0.01,,---,0.02,VWS V14.01,2013-02-19 10:22:00,
2013-02-19 05:27:00,45.3,33.5,29.79,SW,223,11.0,16.0,63,0.01,,---,0.02,VWS V14.01,2013-02-19 10:27:00,
2013-02-19 05:30:00,45.4,33.2,29.79,SW,223,20.0,20.0,62,0.01,,---,0.02,VWS V14.01,2013-02-19 10:30:00,
2013-02-19 05:32:00,45.7,33.0,29.79,WSW,237,10.0,20.0,61,0.01,,---,0.02,VWS V14.01,2013-02-19 10:32:00,
2013-02-19 05:37:00,45.8,33.1,29.80,WSW,250,6.0,21.0,61,0.01,,---,0.02,VWS V14.01,2013-02-19 10:37:00,
2013-02-19 05:40:00,45.8,33.1,29.80,SW,218,11.0,21.0,61,0.01,,---,0.02,VWS V14.01,2013-02-19 10:40:00,
2013-02-19 05:42:00,45.9,33.6,29.79,SW,222,14.0,14.0,62,0.01,,---,0.02,VWS V14.01,2013-02-19 10:42:00,
2013-02-19 05:47:00,45.7,33.4,29.79,SSW,202,6.0,15.0,62,0.01,,---,0.02,VWS V14.01,2013-02-19 10:47:00,
2013-02-19 05:50:00,45.7,33.4,29.79,SSW,194,6.0,15.0,62,0.01,,---,0.02,VWS V14.01,2013-02-19 10:50:00,
2013-02-19 05:52:00,45.6,33.8,29.78,SW,230,8.0,20.0,63,0.00,,---,0.02,VWS V14.01,2013-02-19 10:52:00,
2013-02-19 05:57:00,45.6,33.8,29.79,SW,217,9.0,23.0,63,0.00,,---,0.02,VWS V14.01,2013-02-19 10:57:00,
2013-02-19 06:00:00,45.5,33.7,29.79,SW,220,10.0,23.0,63,0.00,,---,0.02,VWS V14.01,2013-02-19 11:00:00,
2013-02-19 06:02:00,45.4,34.0,29.79,SSW,196,16.0,29.0,64,0.00,,---,0.02,VWS V14.01,2013-02-19 11:02:00,
2013-02-19 06:07:00,45.2,34.5,29.79,South,169,19.0,29.0,66,0.00,,---,0.02,VWS V14.01,2013-02-19 11:07:00,
2013-02-19 06:10:00,45.1,34.8,29.79,SSW,203,11.0,29.0,67,0.00,,---,0.02,VWS V14.01,2013-02-19 11:10:00,
2013-02-19 06:12:00,44.8,35.3,29.79,SW,223,14.0,30.0,69,0.00,,---,0.02,VWS V14.01,2013-02-19 11:12:00,
2013-02-19 06:17:00,44.3,35.5,29.79,SSW,206,16.0,30.0,71,0.00,,---,0.02,VWS V14.01,2013-02-19 11:17:00,
2013-02-19 06:20:00,44.1,35.7,29.79,SSW,202,15.0,30.0,72,0.00,,---,0.02,VWS V14.01,2013-02-19 11:20:00,
2013-02-19 06:22:00,43.7,35.6,29.78,SSW,199,7.0,17.0,73,0.00,,---,0.02,VWS V14.01,2013-02-19 11:22:00,
2013-02-19 06:27:00,43.2,35.8,29.78,SSW,200,11.0,21.0,75,0.00,,---,0.02,VWS V14.01,2013-02-19 11:27:00,
2013-02-19 06:30:00,43.1,36.1,29.78,SSW,206,7.0,21.0,76,0.00,,---,0.02,VWS V14.01,2013-02-19 11:30:00,
2013-02-19 06:32:00,42.7,36.0,29.77,SSW,195,9.0,19.0,77,0.00,,---,0.02,VWS V14.01,2013-02-19 11:32:00,
2013-02-19 06:38:00,42.4,36.0,29.77,SSW,209,7.0,19.0,78,0.00,,---,0.02,VWS V14.01,2013-02-19 11:38:00,
2013-02-19 06:40:00,42.4,36.4,29.77,SSW,207,10.0,19.0,79,0.00,,---,0.02,VWS V14.01,2013-02-19 11:40:00,
2013-02-19 06:43:00,42.2,36.2,29.77,SSE,147,11.0,16.0,79,0.00,,---,0.02,VWS V14.01,2013-02-19 11:43:00,
2013-02-19 06:48:00,42.0,36.3,29.77,SSW,198,6.0,18.0,80,0.00,,---,0.02,VWS V14.01,2013-02-19 11:48:00,
2013-02-19 06:50:00,41.9,36.2,29.76,SW,226,10.0,18.0,80,0.00,,---,0.02,VWS V14.01,2013-02-19 11:50:00,
2013-02-19 06:53:00,41.7,36.3,29.77,SSW,209,9.0,17.0,81,0.00,,---,0.02,VWS V14.01,2013-02-19 11:53:00,
2013-02-19 06:58:00,41.6,36.2,29.76,SSW,212,9.0,17.0,81,0.00,,---,0.02,VWS V14.01,2013-02-19 11:58:00,
2013-02-19 07:00:00,41.6,36.2,29.76,SSW,208,8.0,17.0,81,0.00,,---,0.02,VWS V14.01,2013-02-19 12:00:00,
2013-02-19 07:03:00,41.5,36.1,29.76,SW,219,15.0,19.0,81,0.00,,---,0.02,VWS V14.01,2013-02-19 12:03:00,
2013-02-19 07:08:00,41.5,36.4,29.76,SSW,199,7.0,19.0,82,0.00,,---,0.02,VWS V14.01,2013-02-19 12:08:00,
2013-02-19 07:10:00,41.4,36.3,29.76,SSW,213,9.0,19.0,82,0.00,,---,0.02,VWS V14.01,2013-02-19 12:10:00,
2013-02-19 07:13:00,41.3,36.2,29.75,SW,223,4.0,13.0,82,0.00,,---,0.02,VWS V14.01,2013-02-19 12:13:00,
2013-02-19 07:18:00,41.2,36.4,29.75,SW,222,5.0,13.0,83,0.00,,---,0.02,VWS V14.01,2013-02-19 12:18:00,
2013-02-19 07:20:00,41.1,36.3,29.75,SW,217,8.0,13.0,83,0.00,,---,0.02,VWS V14.01,2013-02-19 12:20:00,
2013-02-19 07:23:00,41.1,36.3,29.75,SSW,205,11.0,13.0,83,0.00,,---,0.02,VWS V14.01,2013-02-19 12:23:00,
2013-02-19 07:28:00,41.1,36.3,29.76,SW,219,9.0,15.0,83,0.00,,---,0.02,VWS V14.01,2013-02-19 12:28:00,
2013-02-19 07:30:00,41.2,36.4,29.76,South,183,8.0,15.0,83,0.00,,---,0.02,VWS V14.01,2013-02-19 12:30:00,
2013-02-19 07:33:00,41.2,36.4,29.76,SW,219,10.0,15.0,83,0.00,,---,0.02,VWS V14.01,2013-02-19 12:33:00,
2013-02-19 07:38:00,41.3,36.2,29.75,SW,218,7.0,15.0,82,0.00,,---,0.02,VWS V14.01,2013-02-19 12:38:00,
2013-02-19 07:40:00,41.3,36.2,29.75,South,190,12.0,15.0,82,0.00,,---,0.02,VWS V14.01,2013-02-19 12:40:00,
2013-02-19 07:43:00,41.5,36.4,29.76,SSW,212,12.0,16.0,82,0.00,,---,0.02,VWS V14.01,2013-02-19 12:43:00,
2013-02-19 07:48:00,41.7,36.3,29.75,SW,221,15.0,18.0,81,0.00,,---,0.02,VWS V14.01,2013-02-19 12:48:00,
2013-02-19 07:50:00,41.8,36.4,29.75,WSW,245,12.0,18.0,81,0.00,,---,0.02,VWS V14.01,2013-02-19 12:50:00,
2013-02-19 07:53:00,42.0,36.3,29.76,West,279,7.0,15.0,80,0.00,,---,0.02,VWS V14.01,2013-02-19 12:53:00,
2013-02-19 07:58:00,42.1,36.4,29.75,SW,215,18.0,18.0,80,0.00,,---,0.02,VWS V14.01,2013-02-19 12:58:00,
2013-02-19 08:00:00,42.2,36.2,29.75,SW,215,13.0,21.0,79,0.00,,---,0.02,VWS V14.01,2013-02-19 13:00:00,
2013-02-19 08:03:00,42.3,36.3,29.75,SSW,194,10.0,15.0,79,0.00,,---,0.02,VWS V14.01,2013-02-19 13:03:00,
2013-02-19 08:08:00,42.4,36.4,29.75,SW,217,9.0,20.0,79,0.00,,---,0.02,VWS V14.01,2013-02-19 13:08:00,
2013-02-19 08:10:00,42.4,36.4,29.75,SW,221,12.0,20.0,79,0.00,,---,0.02,VWS V14.01,2013-02-19 13:10:00,
2013-02-19 08:13:00,42.4,36.4,29.74,South,180,10.0,15.0,79,0.00,,---,0.02,VWS V14.01,2013-02-19 13:13:00,
2013-02-19 08:18:00,42.4,36.4,29.74,SW,223,15.0,23.0,79,0.00,,---,0.02,VWS V14.01,2013-02-19 13:18:00,
2013-02-19 08:20:00,42.4,36.4,29.74,SSW,212,16.0,23.0,79,0.00,,---,0.02,VWS V14.01,2013-02-19 13:20:00,
2013-02-19 08:23:00,42.4,36.4,29.74,SW,219,13.0,20.0,79,0.00,,---,0.02,VWS V14.01,2013-02-19 13:23:00,
2013-02-19 08:28:00,42.4,36.4,29.74,South,182,11.0,20.0,79,0.00,,---,0.02,VWS V14.01,2013-02-19 13:28:00,
2013-02-19 08:30:00,42.4,36.4,29.74,SSW,206,12.0,24.0,79,0.00,,---,0.02,VWS V14.01,2013-02-19 13:30:00,
2013-02-19 08:33:00,42.4,36.4,29.74,SSW,205,18.0,22.0,79,0.00,,---,0.02,VWS V14.01,2013-02-19 13:33:00,
2013-02-19 08:38:00,42.5,36.5,29.73,SSW,209,11.0,22.0,79,0.00,,---,0.02,VWS V14.01,2013-02-19 13:38:00,
2013-02-19 08:40:00,42.5,36.5,29.73,SSW,205,15.0,24.0,79,0.00,,---,0.02,VWS V14.01,2013-02-19 13:40:00,
2013-02-19 08:43:00,42.5,36.5,29.73,SW,229,15.0,24.0,79,0.00,,---,0.02,VWS V14.01,2013-02-19 13:43:00,
2013-02-19 08:48:00,42.6,36.5,29.73,SSW,195,11.0,24.0,79,0.00,,---,0.02,VWS V14.01,2013-02-19 13:48:00,
2013-02-19 08:50:00,42.6,36.6,29.73,SSW,213,8.0,24.0,79,0.00,,---,0.02,VWS V14.01,2013-02-19 13:50:00,
2013-02-19 08:53:00,42.6,36.5,29.74,WSW,244,9.0,18.0,79,0.00,,---,0.02,VWS V14.01,2013-02-19 13:53:00,
2013-02-19 08:58:00,42.7,36.7,29.74,SSE,167,7.0,19.0,79,0.00,,---,0.02,VWS V14.01,2013-02-19 13:58:00,
2013-02-19 09:00:00,42.7,36.7,29.74,South,188,14.0,19.0,79,0.00,,---,0.02,VWS V14.01,2013-02-19 14:00:00,
2013-02-19 09:03:00,42.6,36.5,29.73,SW,226,18.0,22.0,79,0.00,,---,0.02,VWS V14.01,2013-02-19 14:03:00,
2013-02-19 09:08:00,42.5,36.8,29.73,WSW,237,12.0,22.0,80,0.00,,---,0.02,VWS V14.01,2013-02-19 14:08:00,
2013-02-19 09:10:00,42.5,36.8,29.73,SW,234,18.0,22.0,80,0.00,,---,0.02,VWS V14.01,2013-02-19 14:10:00,
2013-02-19 09:13:00,42.5,36.8,29.73,SSW,213,6.0,18.0,80,0.00,,---,0.02,VWS V14.01,2013-02-19 14:13:00,
2013-02-19 09:18:00,42.3,36.9,29.73,SSE,168,9.0,18.0,81,0.00,,---,0.02,VWS V14.01,2013-02-19 14:18:00,
2013-02-19 09:20:00,42.3,36.9,29.73,WSW,248,14.0,18.0,81,0.00,,---,0.02,VWS V14.01,2013-02-19 14:20:00,
2013-02-19 09:23:00,42.4,37.0,29.73,SSW,207,8.0,19.0,81,0.00,,---,0.02,VWS V14.01,2013-02-19 14:23:00,
2013-02-19 09:28:00,42.5,37.1,29.73,SW,230,7.0,19.0,81,0.00,,---,0.02,VWS V14.01,2013-02-19 14:28:00,
2013-02-19 09:30:00,42.5,37.1,29.73,WSW,249,7.0,19.0,81,0.00,,---,0.02,VWS V14.01,2013-02-19 14:30:00,
2013-02-19 09:33:00,42.4,37.0,29.73,SW,234,14.0,16.0,81,0.00,,---,0.02,VWS V14.01,2013-02-19 14:33:00,
2013-02-19 09:38:00,42.3,37.2,29.73,SSW,209,9.0,18.0,82,0.00,,---,0.02,VWS V14.01,2013-02-19 14:38:00,
2013-02-19 09:40:00,42.3,37.2,29.73,West,272,4.0,18.0,82,0.00,,---,0.02,VWS V14.01,2013-02-19 14:40:00,
2013-02-19 09:43:00,42.3,37.2,29.73,SSW,206,13.0,14.0,82,0.00,,---,0.02,VWS V14.01,2013-02-19 14:43:00,
2013-02-19 09:48:00,42.3,37.2,29.73,South,174,9.0,17.0,82,0.00,,---,0.02,VWS V14.01,2013-02-19 14:48:00,
2013-02-19 09:50:00,42.3,37.2,29.73,SW,225,6.0,17.0,82,0.00,,---,0.02,VWS V14.01,2013-02-19 14:50:00,
2013-02-19 09:53:00,42.3,37.2,29.72,SSE,150,9.0,15.0,82,0.00,,---,0.02,VWS V14.01,2013-02-19 14:53:00,
2013-02-19 09:58:00,42.3,37.2,29.72,SW,221,10.0,15.0,82,0.00,,---,0.02,VWS V14.01,2013-02-19 14:58:00,
2013-02-19 10:00:00,42.3,37.2,29.72,SW,223,11.0,15.0,82,0.00,,---,0.02,VWS V14.01,2013-02-19 15:00:00,
2013-02-19 10:03:00,42.4,37.3,29.72,SSW,209,8.0,19.0,82,0.00,,---,0.02,VWS V14.01,2013-02-19 15:03:00,
2013-02-19 10:08:00,42.4,37.3,29.72,SSW,211,9.0,19.0,82,0.00,,---,0.02,VWS V14.01,2013-02-19 15:08:00,
2013-02-19 10:10:00,42.4,37.3,29.72,WSW,238,9.0,19.0,82,0.00,,---,0.02,VWS V14.01,2013-02-19 15:10:00,
2013-02-19 10:13:00,42.4,37.3,29.72,SW,223,4.0,18.0,82,0.00,,---,0.02,VWS V14.01,2013-02-19 15:13:00,
2013-02-19 10:18:00,42.5,37.4,29.72,SSW,211,6.0,18.0,82,0.00,,---,0.02,VWS V14.01,2013-02-19 15:18:00,
2013-02-19 10:20:00,42.5,37.4,29.72,SW,235,8.0,18.0,82,0.00,,---,0.02,VWS V14.01,2013-02-19 15:20:00,
2013-02-19 10:24:00,42.7,37.3,29.71,SW,218,9.0,21.0,81,0.00,,---,0.02,VWS V14.01,2013-02-19 15:24:00,
2013-02-19 10:29:00,42.9,37.5,29.71,SSW,213,11.0,21.0,81,0.00,,---,0.02,VWS V14.01,2013-02-19 15:29:00,
2013-02-19 10:30:00,42.9,37.5,29.71,SW,234,3.0,21.0,81,0.00,,---,0.02,VWS V14.01,2013-02-19 15:30:00,
2013-02-19 10:34:00,43.2,37.5,29.72,SSW,207,15.0,19.0,80,0.00,,---,0.02,VWS V14.01,2013-02-19 15:34:00,
2013-02-19 10:39:00,43.5,37.4,29.71,SW,217,7.0,19.0,79,0.00,,---,0.02,VWS V14.01,2013-02-19 15:39:00,
2013-02-19 10:40:00,43.6,37.5,29.71,SSW,206,12.0,19.0,79,0.00,,---,0.02,VWS V14.01,2013-02-19 15:40:00,
2013-02-19 10:44:00,43.9,37.8,29.71,SW,218,10.0,17.0,79,0.00,,---,0.02,VWS V14.01,2013-02-19 15:44:00,
2013-02-19 10:49:00,44.1,37.7,29.71,South,188,20.0,20.0,78,0.00,,---,0.02,VWS V14.01,2013-02-19 15:49:00,
2013-02-19 10:50:00,44.1,37.7,29.71,West,259,7.0,20.0,78,0.00,,---,0.02,VWS V14.01,2013-02-19 15:50:00,
2013-02-19 10:54:00,44.2,37.8,29.71,SW,221,17.0,19.0,78,0.00,,---,0.02,VWS V14.01,2013-02-19 15:54:00,
2013-02-19 10:59:00,44.3,37.9,29.71,SSW,196,4.0,22.0,78,0.00,,---,0.02,VWS V14.01,2013-02-19 15:59:00,
2013-02-19 11:00:00,44.4,38.0,29.71,SW,218,7.0,22.0,78,0.00,,---,0.02,VWS V14.01,2013-02-19 16:00:00,
2013-02-19 11:04:00,44.6,37.8,29.70,WSW,254,12.0,22.0,77,0.00,,---,0.02,VWS V14.01,2013-02-19 16:04:00,
2013-02-19 11:09:00,44.8,38.0,29.70,SW,226,14.0,22.0,77,0.00,,---,0.02,VWS V14.01,2013-02-19 16:09:00,
2013-02-19 11:10:00,44.8,38.0,29.70,SW,230,7.0,22.0,77,0.00,,---,0.02,VWS V14.01,2013-02-19 16:10:00,
2013-02-19 11:14:00,44.9,37.8,29.70,SSW,205,13.0,22.0,76,0.00,,---,0.02,VWS V14.01,2013-02-19 16:14:00,
2013-02-19 11:19:00,45.0,37.9,29.70,West,271,11.0,25.0,76,0.00,,---,0.02,VWS V14.01,2013-02-19 16:19:00,
2013-02-19 11:20:00,45.0,37.9,29.70,WSW,244,12.0,25.0,76,0.00,,---,0.02,VWS V14.01,2013-02-19 16:20:00,
2013-02-19 11:24:00,45.0,37.9,29.70,WSW,254,8.0,21.0,76,0.00,,---,0.02,VWS V14.01,2013-02-19 16:24:00,
2013-02-19 11:29:00,45.0,37.9,29.70,SSW,195,5.0,21.0,76,0.00,,---,0.02,VWS V14.01,2013-02-19 16:29:00,
2013-02-19 11:30:00,45.0,37.9,29.70,South,184,12.0,21.0,76,0.00,,---,0.02,VWS V14.01,2013-02-19 16:30:00,
2013-02-19 11:34:00,44.9,37.8,29.70,SW,217,7.0,17.0,76,0.00,,---,0.02,VWS V14.01,2013-02-19 16:34:00,
2013-02-19 11:39:00,44.8,38.0,29.70,SW,234,11.0,22.0,77,0.00,,---,0.02,VWS V14.01,2013-02-19 16:39:00,
2013-02-19 11:40:00,44.8,38.0,29.70,SW,221,12.0,22.0,77,0.00,,---,0.02,VWS V14.01,2013-02-19 16:40:00,
2013-02-19 11:44:00,44.7,37.9,29.69,SW,226,8.0,23.0,77,0.00,,---,0.02,VWS V14.01,2013-02-19 16:44:00,
2013-02-19 11:49:00,44.7,38.3,29.69,SSW,213,8.0,23.0,78,0.00,,---,0.02,VWS V14.01,2013-02-19 16:49:00,
2013-02-19 11:50:00,44.7,38.3,29.69,SSW,213,6.0,23.0,78,0.00,,---,0.02,VWS V14.01,2013-02-19 16:50:00,
2013-02-19 11:54:00,44.6,37.8,29.69,SW,226,10.0,23.0,77,0.00,,---,0.02,VWS V14.01,2013-02-19 16:54:00,
2013-02-19 11:59:00,44.6,38.2,29.69,SW,219,20.0,23.0,78,0.00,,---,0.02,VWS V14.01,2013-02-19 16:59:00,
2013-02-19 12:00:00,44.6,38.2,29.69,SW,229,15.0,23.0,78,0.00,,---,0.02,VWS V14.01,2013-02-19 17:00:00,
2013-02-19 12:04:00,44.6,38.2,29.68,SW,223,7.0,18.0,78,0.00,,---,0.02,VWS V14.01,2013-02-19 17:04:00,
2013-02-19 12:09:00,44.6,37.8,29.68,SW,226,13.0,23.0,77,0.00,,---,0.02,VWS V14.01,2013-02-19 17:09:00,
2013-02-19 12:10:00,44.6,37.8,29.68,SW,219,15.0,23.0,77,0.00,,---,0.02,VWS V14.01,2013-02-19 17:10:00,
2013-02-19 12:14:00,44.6,37.8,29.68,South,186,11.0,21.0,77,0.00,,---,0.02,VWS V14.01,2013-02-19 17:14:00,
2013-02-19 12:19:00,44.7,37.9,29.68,SW,218,13.0,21.0,77,0.00,,---,0.02,VWS V14.01,2013-02-19 17:19:00,
2013-02-19 12:20:00,44.7,37.9,29.68,SW,225,17.0,21.0,77,0.00,,---,0.02,VWS V14.01,2013-02-19 17:20:00,
2013-02-19 12:24:00,44.8,38.0,29.67,SSW,210,16.0,18.0,77,0.00,,---,0.02,VWS V14.01,2013-02-19 17:24:00,
2013-02-19 12:29:00,44.9,37.8,29.67,SW,230,9.0,20.0,76,0.00,,---,0.02,VWS V14.01,2013-02-19 17:29:00,
2013-02-19 12:30:00,44.9,37.8,29.67,SW,225,5.0,20.0,76,0.00,,---,0.02,VWS V14.01,2013-02-19 17:30:00,
2013-02-19 12:34:00,45.1,37.7,29.66,SSW,202,13.0,20.0,75,0.00,,---,0.02,VWS V14.01,2013-02-19 17:34:00,
2013-02-19 12:39:00,45.3,37.9,29.66,SW,214,9.0,22.0,75,0.00,,---,0.02,VWS V14.01,2013-02-19 17:39:00,
2013-02-19 12:40:00,45.3,37.8,29.66,SSW,211,9.0,22.0,75,0.00,,---,0.02,VWS V14.01,2013-02-19 17:40:00,
2013-02-19 12:44:00,45.3,37.5,29.66,SSW,210,8.0,22.0,74,0.00,,---,0.02,VWS V14.01,2013-02-19 17:44:00,
2013-02-19 12:49:00,45.1,38.0,29.67,ENE,78,4.0,22.0,76,0.00,,---,0.02,VWS V14.01,2013-02-19 17:49:00,
2013-02-19 12:50:00,45.1,38.0,29.67,WSW,257,9.0,22.0,76,0.00,,---,0.02,VWS V14.01,2013-02-19 17:50:00,
2013-02-19 12:54:00,41.8,34.8,29.68,SE,144,6.0,19.0,76,0.01,,---,0.03,VWS V14.01,2013-02-19 17:54:00,
2013-02-19 12:59:00,38.0,33.0,29.69,SW,221,5.0,19.0,82,0.04,,---,0.06,VWS V14.01,2013-02-19 17:59:00,
2013-02-19 13:00:00,38.0,33.0,29.69,WNW,295,2.0,19.0,82,0.04,,---,0.06,VWS V14.01,2013-02-19 18:00:00,
2013-02-19 13:04:00,36.4,32.6,29.69,SW,225,8.0,8.0,86,0.06,,---,0.08,VWS V14.01,2013-02-19 18:04:00,
2013-02-19 13:09:00,36.4,33.2,29.69,WSW,249,4.0,8.0,88,0.06,,---,0.08,VWS V14.01,2013-02-19 18:09:00,
2013-02-19 13:10:00,36.4,33.5,29.69,NNW,339,4.0,8.0,89,0.06,,---,0.08,VWS V14.01,2013-02-19 18:10:00,
2013-02-19 13:14:00,37.1,34.4,29.69,South,178,4.0,9.0,90,0.06,,---,0.08,VWS V14.01,2013-02-19 18:14:00,
2013-02-19 13:19:00,37.8,35.1,29.69,SSW,207,2.0,11.0,90,0.06,,---,0.08,VWS V14.01,2013-02-19 18:19:00,
2013-02-19 13:20:00,37.8,35.1,29.69,East,98,0.0,11.0,90,0.06,,---,0.08,VWS V14.01,2013-02-19 18:20:00,
2013-02-19 13:24:00,38.1,34.9,29.69,NNW,348,7.0,14.0,88,0.06,,---,0.08,VWS V14.01,2013-02-19 18:24:00,
2013-02-19 13:29:00,38.1,34.6,29.70,South,180,1.0,14.0,87,0.06,,---,0.08,VWS V14.01,2013-02-19 18:29:00,
2013-02-19 13:30:00,38.1,34.6,29.70,ESE,107,1.0,14.0,87,0.06,,---,0.08,VWS V14.01,2013-02-19 18:30:00,
2013-02-19 13:34:00,37.9,34.1,29.70,South,179,6.0,12.0,86,0.06,,---,0.08,VWS V14.01,2013-02-19 18:34:00,
2013-02-19 13:39:00,37.8,34.0,29.70,WSW,246,7.0,14.0,86,0.06,,---,0.08,VWS V14.01,2013-02-19 18:39:00,
2013-02-19 13:40:00,37.8,34.0,29.70,NNW,330,3.0,14.0,86,0.06,,---,0.08,VWS V14.01,2013-02-19 18:40:00,
2013-02-19 13:44:00,37.7,33.9,29.70,SE,130,5.0,11.0,86,0.06,,---,0.08,VWS V14.01,2013-02-19 18:44:00,
2013-02-19 13:49:00,37.7,33.9,29.71,WNW,284,13.0,18.0,86,0.06,,---,0.08,VWS V14.01,2013-02-19 18:49:00,
2013-02-19 13:50:00,37.7,33.9,29.71,WSW,249,11.0,18.0,86,0.06,,---,0.08,VWS V14.01,2013-02-19 18:50:00,
2013-02-19 13:54:00,37.8,34.0,29.71,WSW,242,3.0,11.0,86,0.06,,---,0.08,VWS V14.01,2013-02-19 18:54:00,
2013-02-19 13:59:00,38.0,33.6,29.71,WNW,292,7.0,18.0,84,0.06,,---,0.08,VWS V14.01,2013-02-19 18:59:00,
2013-02-19 14:00:00,38.0,33.6,29.71,SW,229,8.0,18.0,84,0.06,,---,0.08,VWS V14.01,2013-02-19 19:00:00,
2013-02-19 14:04:00,38.2,33.5,29.71,WSW,242,14.0,19.0,83,0.02,,---,0.08,VWS V14.01,2013-02-19 19:04:00,
2013-02-19 14:09:00,38.2,33.2,29.72,SW,232,7.0,20.0,82,0.02,,---,0.08,VWS V14.01,2013-02-19 19:09:00,
2013-02-19 14:10:00,38.3,33.3,29.72,SW,233,7.0,20.0,82,0.02,,---,0.08,VWS V14.01,2013-02-19 19:10:00,
2013-02-19 14:14:00,38.3,33.3,29.71,West,273,4.0,16.0,82,0.00,,---,0.08,VWS V14.01,2013-02-19 19:14:00,
2013-02-19 14:19:00,38.8,33.5,29.71,West,268,7.0,16.0,81,0.00,,---,0.08,VWS V14.01,2013-02-19 19:19:00,
2013-02-19 14:20:00,38.8,33.5,29.71,West,269,5.0,16.0,81,0.00,,---,0.08,VWS V14.01,2013-02-19 19:20:00,
2013-02-19 14:24:00,39.3,33.3,29.71,SW,219,6.0,14.0,79,0.00,,---,0.08,VWS V14.01,2013-02-19 19:24:00,
2013-02-19 14:29:00,39.6,33.6,29.71,WSW,242,5.0,16.0,79,0.00,,---,0.08,VWS V14.01,2013-02-19 19:29:00,
2013-02-19 14:30:00,39.6,33.6,29.71,SW,215,8.0,16.0,79,0.00,,---,0.08,VWS V14.01,2013-02-19 19:30:00,
2013-02-19 14:34:00,39.6,33.0,29.71,WSW,248,3.0,14.0,77,0.00,,---,0.08,VWS V14.01,2013-02-19 19:34:00,
2013-02-19 14:39:00,39.6,33.0,29.72,West,268,2.0,14.0,77,0.00,,---,0.08,VWS V14.01,2013-02-19 19:39:00,
2013-02-19 14:40:00,39.6,33.0,29.72,SW,229,3.0,14.0,77,0.00,,---,0.08,VWS V14.01,2013-02-19 19:40:00,
2013-02-19 14:44:00,38.9,32.6,29.73,North,351,3.0,20.0,78,0.00,,---,0.08,VWS V14.01,2013-02-19 19:44:00,
2013-02-19 14:49:00,36.6,31.6,29.74,West,281,13.0,20.0,82,0.00,,---,0.08,VWS V14.01,2013-02-19 19:49:00,
2013-02-19 14:50:00,36.6,31.6,29.74,NNW,340,4.0,20.0,82,0.00,,---,0.08,VWS V14.01,2013-02-19 19:50:00,
2013-02-19 14:54:00,35.6,31.5,29.74,NNW,337,2.0,16.0,85,0.00,,---,0.08,VWS V14.01,2013-02-19 19:54:00,
2013-02-19 14:59:00,35.5,31.7,29.74,West,265,8.0,16.0,86,0.01,,---,0.09,VWS V14.01,2013-02-19 19:59:00,
2013-02-19 15:00:00,35.5,31.7,29.74,NW,310,7.0,16.0,86,0.01,,---,0.09,VWS V14.01,2013-02-19 20:00:00,
2013-02-19 15:04:00,35.7,31.0,29.74,NNE,31,2.0,20.0,83,0.01,,---,0.09,VWS V14.01,2013-02-19 20:04:00,
2013-02-19 15:09:00,35.9,30.6,29.75,SW,221,4.0,20.0,81,0.01,,---,0.09,VWS V14.01,2013-02-19 20:09:00,
2013-02-19 15:10:00,35.9,30.6,29.75,WNW,294,2.0,20.0,81,0.01,,---,0.09,VWS V14.01,2013-02-19 20:10:00,
2013-02-19 15:14:00,36.2,30.6,29.75,WNW,299,7.0,17.0,80,0.01,,---,0.09,VWS V14.01,2013-02-19 20:14:00,
2013-02-19 15:19:00,36.4,29.2,29.75,ENE,77,4.0,24.0,75,0.01,,---,0.09,VWS V14.01,2013-02-19 20:19:00,
2013-02-19 15:20:00,36.4,29.2,29.75,WNW,300,4.0,24.0,75,0.01,,---,0.09,VWS V14.01,2013-02-19 20:20:00,
2013-02-19 15:24:00,36.7,29.2,29.75,WSW,242,18.0,21.0,74,0.01,,---,0.09,VWS V14.01,2013-02-19 20:24:00,
2013-02-19 15:29:00,36.9,29.4,29.75,WSW,242,4.0,21.0,74,0.01,,---,0.09,VWS V14.01,2013-02-19 20:29:00,
2013-02-19 15:30:00,36.9,29.4,29.75,WSW,242,4.0,21.0,74,0.01,,---,0.09,VWS V14.01,2013-02-19 20:30:00,
2013-02-19 15:34:00,37.2,29.7,29.75,WSW,241,5.0,12.0,74,0.01,,---,0.09,VWS V14.01,2013-02-19 20:34:00,
2013-02-19 15:39:00,37.3,29.1,29.75,West,271,12.0,20.0,72,0.01,,---,0.09,VWS V14.01,2013-02-19 20:39:00,
2013-02-19 15:40:00,37.3,29.1,29.75,West,271,12.0,20.0,72,0.01,,---,0.09,VWS V14.01,2013-02-19 20:40:00,
2013-02-19 15:44:00,37.2,29.4,29.75,WSW,244,7.0,12.0,73,0.01,,---,0.09,VWS V14.01,2013-02-19 20:44:00,
2013-02-19 15:49:00,37.2,29.0,29.76,WSW,257,2.0,12.0,72,0.01,,---,0.09,VWS V14.01,2013-02-19 20:49:00,
2013-02-19 15:50:00,37.2,29.0,29.76,WSW,257,2.0,12.0,72,0.01,,---,0.09,VWS V14.01,2013-02-19 20:50:00,
2013-02-19 15:54:00,37.1,28.9,29.76,NW,306,2.0,13.0,72,0.01,,---,0.09,VWS V14.01,2013-02-19 20:54:00,
2013-02-19 15:59:00,37.1,27.9,29.76,SW,236,15.0,19.0,69,0.01,,---,0.09,VWS V14.01,2013-02-19 20:59:00,
2013-02-19 16:00:00,37.1,27.9,29.76,SW,236,15.0,19.0,69,0.01,,---,0.09,VWS V14.01,2013-02-19 21:00:00,
2013-02-19 16:04:00,37.2,28.3,29.76,WSW,248,7.0,17.0,70,0.00,,---,0.09,VWS V14.01,2013-02-19 21:04:00,
2013-02-19 16:09:00,37.4,27.8,29.76,WSW,237,10.0,17.0,68,0.00,,---,0.09,VWS V14.01,2013-02-19 21:09:00,
2013-02-19 16:10:00,37.4,27.8,29.76,WSW,237,10.0,17.0,68,0.00,,---,0.09,VWS V14.01,2013-02-19 21:10:00,
2013-02-19 16:14:00,37.3,27.7,29.77,WSW,248,3.0,17.0,68,0.00,,---,0.09,VWS V14.01,2013-02-19 21:14:00,
2013-02-19 16:19:00,37.3,28.1,29.77,WNW,297,2.0,17.0,69,0.00,,---,0.09,VWS V14.01,2013-02-19 21:19:00,
2013-02-19 16:20:00,37.3,28.1,29.77,WNW,297,2.0,17.0,69,0.00,,---,0.09,VWS V14.01,2013-02-19 21:20:00,
2013-02-19 16:24:00,37.1,27.5,29.77,WSW,241,12.0,15.0,68,0.00,,---,0.09,VWS V14.01,2013-02-19 21:24:00,
2013-02-19 16:29:00,36.9,27.0,29.77,WSW,249,24.0,24.0,67,0.00,,---,0.09,VWS V14.01,2013-02-19 21:29:00,
2013-02-19 16:30:00,36.9,27.0,29.77,WSW,249,24.0,24.0,67,0.00,,---,0.09,VWS V14.01,2013-02-19 21:30:00,
2013-02-19 16:34:00,36.8,26.9,29.78,West,260,2.0,24.0,67,0.00,,---,0.09,VWS V14.01,2013-02-19 21:34:00,
2013-02-19 16:39:00,36.7,27.1,29.78,NNE,20,2.0,4.0,68,0.00,,---,0.09,VWS V14.01,2013-02-19 21:39:00,
2013-02-19 16:40:00,36.7,26.8,29.78,WSW,253,4.0,24.0,67,0.00,,---,0.09,VWS V14.01,2013-02-19 21:40:00,
2013-02-19 16:44:00,36.7,26.8,29.78,WSW,254,4.0,19.0,67,0.00,,---,0.09,VWS V14.01,2013-02-19 21:44:00,
2013-02-19 16:49:00,36.4,26.9,29.78,ENE,67,7.0,7.0,68,0.00,,---,0.09,VWS V14.01,2013-02-19 21:49:00,
2013-02-19 16:50:00,36.5,27.0,29.78,SE,143,5.0,24.0,68,0.00,,---,0.09,VWS V14.01,2013-02-19 21:50:00,
2013-02-19 16:54:00,35.8,28.0,29.79,West,265,3.0,13.0,73,0.00,,---,0.09,VWS V14.01,2013-02-19 21:54:00,
2013-02-19 16:59:00,35.1,28.0,29.79,NNW,327,5.0,8.0,75,0.00,,---,0.09,VWS V14.01,2013-02-19 21:59:00,
2013-02-19 17:00:00,35.1,28.0,29.80,ENE,65,6.0,15.0,75,0.00,,---,0.09,VWS V14.01,2013-02-19 22:00:00,
2013-02-19 17:04:00,34.4,28.3,29.80,WSW,238,10.0,15.0,78,0.00,,---,0.09,VWS V14.01,2013-02-19 22:04:00,
2013-02-19 17:09:00,34.0,27.9,29.81,SW,227,3.0,4.0,78,0.00,,---,0.09,VWS V14.01,2013-02-19 22:09:00,
2013-02-19 17:10:00,34.0,27.9,29.81,NNW,330,3.0,15.0,78,0.00,,---,0.09,VWS V14.01,2013-02-19 22:10:00,
2013-02-19 17:14:00,34.0,28.2,29.81,South,171,4.0,7.0,79,0.00,,---,0.09,VWS V14.01,2013-02-19 22:14:00,
2013-02-19 17:19:00,34.1,27.3,29.81,WSW,240,8.0,8.0,76,0.00,,---,0.09,VWS V14.01,2013-02-19 22:19:00,
2013-02-19 17:20:00,34.1,27.3,29.82,WSW,241,6.0,8.0,76,0.00,,---,0.09,VWS V14.01,2013-02-19 22:20:00,
2013-02-19 17:24:00,34.4,27.0,29.81,West,274,4.0,13.0,74,0.00,,---,0.09,VWS V14.01,2013-02-19 22:24:00,
2013-02-19 17:29:00,34.5,25.7,29.81,WSW,243,9.0,11.0,70,0.00,,---,0.09,VWS V14.01,2013-02-19 22:29:00,
2013-02-19 17:30:00,34.5,25.7,29.81,WSW,246,9.0,16.0,70,0.00,,---,0.09,VWS V14.01,2013-02-19 22:30:00,
2013-02-19 17:35:00,34.5,25.7,29.82,SW,227,7.0,11.0,70,0.00,,---,0.09,VWS V14.01,2013-02-19 22:35:00,
2013-02-19 17:40:00,34.5,25.4,29.82,WSW,238,7.0,13.0,69,0.00,,---,0.09,VWS V14.01,2013-02-19 22:40:00,
2013-02-19 17:45:00,34.5,25.0,29.82,WSW,247,12.0,17.0,68,0.00,,---,0.09,VWS V14.01,2013-02-19 22:45:00,
2013-02-19 17:50:00,34.5,25.0,29.82,WSW,245,3.0,6.0,68,0.00,,---,0.09,VWS V14.01,2013-02-19 22:50:00,
2013-02-19 17:55:00,34.4,25.0,29.83,SW,230,6.0,10.0,68,0.00,,---,0.09,VWS V14.01,2013-02-19 22:55:00,
2013-02-19 18:00:00,34.5,23.6,29.83,WSW,242,12.0,15.0,64,0.00,,---,0.09,VWS V14.01,2013-02-19 23:00:00,
2013-02-19 18:05:00,34.4,23.9,29.84,ESE,121,4.0,15.0,65,0.00,,---,0.09,VWS V14.01,2013-02-19 23:05:00,
2013-02-19 18:10:00,34.2,24.0,29.84,West,260,11.0,13.0,66,0.00,,---,0.09,VWS V14.01,2013-02-19 23:10:00,
2013-02-19 18:15:00,33.8,24.4,29.85,WSW,237,11.0,22.0,68,0.00,,---,0.09,VWS V14.01,2013-02-19 23:15:00,
2013-02-19 18:20:00,33.4,25.0,29.85,WNW,291,5.0,6.0,71,0.00,,---,0.09,VWS V14.01,2013-02-19 23:20:00,
2013-02-19 18:25:00,33.1,25.7,29.86,ESE,118,2.0,11.0,74,0.00,,---,0.09,VWS V14.01,2013-02-19 23:25:00,
2013-02-19 18:30:00,32.4,26.9,29.87,SE,145,4.0,6.0,80,0.00,,---,0.09,VWS V14.01,2013-02-19 23:30:00,
2013-02-19 18:35:00,31.4,27.1,29.87,ENE,76,5.0,14.0,84,0.00,,---,0.09,VWS V14.01,2013-02-19 23:35:00,
2013-02-19 18:40:00,30.6,26.9,29.88,SE,137,4.0,12.0,86,0.00,,---,0.09,VWS V14.01,2013-02-19 23:40:00,
2013-02-19 18:45:00,30.3,26.1,29.88,SW,233,6.0,12.0,84,0.00,,---,0.09,VWS V14.01,2013-02-19 23:45:00,
2013-02-19 18:50:00,30.3,26.1,29.88,NE,36,5.0,7.0,84,0.00,,---,0.09,VWS V14.01,2013-02-19 23:50:00,
2013-02-19 18:55:00,30.3,25.2,29.88,SW,233,6.0,11.0,81,0.00,,---,0.09,VWS V14.01,2013-02-19 23:55:00,
2013-02-19 19:00:00,30.4,25.0,29.88,SSW,194,3.0,7.0,80,0.00,,---,0.09,VWS V14.01,2013-02-20 00:00:00,
2013-02-19 19:05:00,30.4,25.0,29.88,SW,232,6.0,8.0,80,0.00,,---,0.09,VWS V14.01,2013-02-20 00:05:00,
2013-02-19 19:10:00,30.5,24.5,29.89,WSW,249,2.0,4.0,78,0.00,,---,0.09,VWS V14.01,2013-02-20 00:10:00,
2013-02-19 19:15:00,30.6,24.3,29.89,WSW,245,1.0,12.0,77,0.00,,---,0.09,VWS V14.01,2013-02-20 00:15:00,
2013-02-19 19:20:00,30.6,24.3,29.89,WSW,241,1.0,3.0,77,0.00,,---,0.09,VWS V14.01,2013-02-20 00:20:00,
2013-02-19 19:25:00,30.6,24.3,29.89,WSW,245,10.0,15.0,77,0.00,,---,0.09,VWS V14.01,2013-02-20 00:25:00,
2013-02-19 19:30:00,30.5,24.2,29.90,WSW,248,3.0,5.0,77,0.00,,---,0.09,VWS V14.01,2013-02-20 00:30:00,
2013-02-19 19:35:00,30.3,24.3,29.90,WSW,242,9.0,9.0,78,0.00,,---,0.09,VWS V14.01,2013-02-20 00:35:00,
2013-02-19 19:40:00,30.1,23.8,29.90,West,265,4.0,8.0,77,0.00,,---,0.09,VWS V14.01,2013-02-20 00:40:00,
2013-02-19 19:45:00,30.0,24.0,29.90,WSW,252,8.0,9.0,78,0.00,,---,0.09,VWS V14.01,2013-02-20 00:45:00,
2013-02-19 19:50:00,30.0,24.3,29.90,SSW,195,2.0,6.0,79,0.00,,---,0.09,VWS V14.01,2013-02-20 00:50:00,
2013-02-19 19:55:00,30.0,23.7,29.90,SW,233,8.0,11.0,77,0.00,,---,0.09,VWS V14.01,2013-02-20 00:55:00,
2013-02-19 20:00:00,30.1,23.5,29.90,NW,325,2.0,14.0,76,0.00,,---,0.09,VWS V14.01,2013-02-20 01:00:00,
2013-02-19 20:05:00,30.1,23.8,29.90,WSW,256,0.0,14.0,77,0.00,,---,0.09,VWS V14.01,2013-02-20 01:05:00,
2013-02-19 20:10:00,30.0,23.7,29.90,SW,232,1.0,4.0,77,0.00,,---,0.09,VWS V14.01,2013-02-20 01:10:00,
2013-02-19 20:15:00,29.8,23.5,29.91,WSW,246,9.0,13.0,77,0.00,,---,0.09,VWS V14.01,2013-02-20 01:15:00,
2013-02-19 20:20:00,29.6,23.9,29.90,WSW,249,4.0,5.0,79,0.00,,---,0.09,VWS V14.01,2013-02-20 01:20:00,
2013-02-19 20:25:00,29.4,24.0,29.91,East,92,4.0,6.0,80,0.00,,---,0.09,VWS V14.01,2013-02-20 01:25:00,
2013-02-19 20:30:00,29.1,24.3,29.91,ENE,59,2.0,3.0,82,0.00,,---,0.09,VWS V14.01,2013-02-20 01:30:00,
2013-02-19 20:35:00,28.8,24.0,29.91,SE,126,5.0,17.0,82,0.00,,---,0.09,VWS V14.01,2013-02-20 01:35:00,
2013-02-19 20:40:00,28.5,23.7,29.92,SW,233,4.0,7.0,82,0.00,,---,0.09,VWS V14.01,2013-02-20 01:40:00,
2013-02-19 20:45:00,28.3,23.8,29.92,SSW,209,2.0,7.0,83,0.00,,---,0.09,VWS V14.01,2013-02-20 01:45:00,
2013-02-19 20:50:00,28.3,23.8,29.92,SE,133,0.0,4.0,83,0.00,,---,0.09,VWS V14.01,2013-02-20 01:50:00,
2013-02-19 20:55:00,28.2,23.7,29.92,NW,306,3.0,5.0,83,0.00,,---,0.09,VWS V14.01,2013-02-20 01:55:00,
2013-02-19 21:00:00,28.1,23.6,29.92,WNW,288,4.0,7.0,83,0.00,,---,0.09,VWS V14.01,2013-02-20 02:00:00,
2013-02-19 21:05:00,28.0,23.8,29.92,SE,127,2.0,12.0,84,0.00,,---,0.09,VWS V14.01,2013-02-20 02:05:00,
2013-02-19 21:10:00,27.8,23.6,29.93,NNW,335,4.0,11.0,84,0.00,,---,0.09,VWS V14.01,2013-02-20 02:10:00,
2013-02-19 21:15:00,27.6,23.4,29.93,SW,234,4.0,11.0,84,0.00,,---,0.09,VWS V14.01,2013-02-20 02:15:00,
2013-02-19 21:20:00,27.3,23.1,29.93,NE,34,3.0,6.0,84,0.00,,---,0.09,VWS V14.01,2013-02-20 02:20:00,
2013-02-19 21:25:00,27.2,22.7,29.93,SSW,198,3.0,6.0,83,0.00,,---,0.09,VWS V14.01,2013-02-20 02:25:00,
2013-02-19 21:30:00,27.1,22.1,29.93,SSW,203,4.0,12.0,81,0.00,,---,0.09,VWS V14.01,2013-02-20 02:30:00,
2013-02-19 21:35:00,27.1,21.8,29.93,SSE,163,5.0,12.0,80,0.00,,---,0.09,VWS V14.01,2013-02-20 02:35:00,
2013-02-19 21:40:00,27.2,21.6,29.93,NW,313,3.0,10.0,79,0.00,,---,0.09,VWS V14.01,2013-02-20 02:40:00,
2013-02-19 21:45:00,27.2,21.6,29.94,SW,232,0.0,10.0,79,0.00,,---,0.09,VWS V14.01,2013-02-20 02:45:00,
2013-02-19 21:50:00,27.2,21.3,29.94,WNW,302,2.0,9.0,78,0.00,,---,0.09,VWS V14.01,2013-02-20 02:50:00,
2013-02-19 21:55:00,27.2,21.3,29.94,East,86,1.0,9.0,78,0.00,,---,0.09,VWS V14.01,2013-02-20 02:55:00,
2013-02-19 22:00:00,27.2,21.0,29.94,North,351,5.0,7.0,77,0.00,,---,0.09,VWS V14.01,2013-02-20 03:00:00,
2013-02-19 22:05:00,27.2,21.0,29.94,NW,304,3.0,7.0,77,0.00,,---,0.09,VWS V14.01,2013-02-20 03:05:00,
2013-02-19 22:10:00,27.1,20.5,29.94,WSW,249,6.0,12.0,76,0.00,,---,0.09,VWS V14.01,2013-02-20 03:10:00,
2013-02-19 22:15:00,27.1,19.9,29.94,SW,236,8.0,14.0,74,0.00,,---,0.09,VWS V14.01,2013-02-20 03:15:00,
2013-02-19 22:20:00,27.2,19.7,29.94,SW,236,6.0,7.0,73,0.00,,---,0.09,VWS V14.01,2013-02-20 03:20:00,
2013-02-19 22:25:00,27.2,18.7,29.94,West,273,4.0,15.0,70,0.00,,---,0.09,VWS V14.01,2013-02-20 03:25:00,
2013-02-19 22:30:00,27.1,19.0,29.94,WSW,246,5.0,15.0,71,0.00,,---,0.09,VWS V14.01,2013-02-20 03:30:00,
2013-02-19 22:31:00,27.1,19.0,29.94,WSW,237,5.0,5.0,71,0.00,,---,0.09,VWS V14.01,2013-02-20 03:31:00,
2013-02-19 22:36:00,27.1,18.6,29.94,WSW,254,13.0,13.0,70,0.00,,---,0.09,VWS V14.01,2013-02-20 03:36:00,
2013-02-19 22:40:00,27.0,18.5,29.94,SW,222,7.0,17.0,70,0.00,,---,0.09,VWS V14.01,2013-02-20 03:40:00,
2013-02-19 22:41:00,27.0,18.2,29.94,WSW,246,6.0,12.0,69,0.00,,---,0.09,VWS V14.01,2013-02-20 03:41:00,
2013-02-19 22:46:00,27.0,18.5,29.95,SW,215,5.0,14.0,70,0.00,,---,0.09,VWS V14.01,2013-02-20 03:46:00,
2013-02-19 22:50:00,26.9,18.4,29.94,WSW,243,2.0,14.0,70,0.00,,---,0.09,VWS V14.01,2013-02-20 03:50:00,
2013-02-19 22:51:00,26.9,18.4,29.95,West,276,7.0,7.0,70,0.00,,---,0.09,VWS V14.01,2013-02-20 03:51:00,
2013-02-19 22:56:00,26.9,18.4,29.94,East,100,2.0,13.0,70,0.00,,---,0.09,VWS V14.01,2013-02-20 03:56:00,
2013-02-19 23:00:00,26.8,18.3,29.95,WNW,288,1.0,15.0,70,0.00,,---,0.09,VWS V14.01,2013-02-20 04:00:00,
2013-02-19 23:01:00,26.8,18.3,29.95,SSW,203,4.0,9.0,70,0.00,,---,0.09,VWS V14.01,2013-02-20 04:01:00,
2013-02-19 23:06:00,26.8,18.7,29.95,WSW,252,7.0,13.0,71,0.00,,---,0.09,VWS V14.01,2013-02-20 04:06:00,
2013-02-19 23:10:00,26.7,18.6,29.95,WSW,237,2.0,13.0,71,0.00,,---,0.09,VWS V14.01,2013-02-20 04:10:00,
2013-02-19 23:11:00,26.7,18.6,29.95,West,280,3.0,11.0,71,0.00,,---,0.09,VWS V14.01,2013-02-20 04:11:00,
2013-02-19 23:16:00,26.7,18.2,29.95,ENE,63,3.0,11.0,70,0.00,,---,0.09,VWS V14.01,2013-02-20 04:16:00,
2013-02-19 23:20:00,26.7,18.2,29.95,SW,233,9.0,11.0,70,0.00,,---,0.09,VWS V14.01,2013-02-20 04:20:00,
2013-02-19 23:21:00,26.7,18.2,29.95,NE,47,3.0,13.0,70,0.00,,---,0.09,VWS V14.01,2013-02-20 04:21:00,
2013-02-19 23:26:00,26.7,17.6,29.95,NW,310,2.0,13.0,68,0.00,,---,0.09,VWS V14.01,2013-02-20 04:26:00,
2013-02-19 23:30:00,26.7,17.6,29.95,WNW,290,3.0,13.0,68,0.00,,---,0.09,VWS V14.01,2013-02-20 04:30:00,
2013-02-19 23:31:00,26.7,17.6,29.95,West,281,1.0,9.0,68,0.00,,---,0.09,VWS V14.01,2013-02-20 04:31:00,
2013-02-19 23:36:00,26.7,17.6,29.95,SW,234,7.0,9.0,68,0.00,,---,0.09,VWS V14.01,2013-02-20 04:36:00,
2013-02-19 23:40:00,26.5,17.4,29.95,West,259,2.0,10.0,68,0.00,,---,0.09,VWS V14.01,2013-02-20 04:40:00,
2013-02-19 23:41:00,26.5,17.4,29.96,SW,221,9.0,11.0,68,0.00,,---,0.09,VWS V14.01,2013-02-20 04:41:00,
2013-02-19 23:46:00,26.5,17.0,29.95,SSW,207,1.0,17.0,67,0.00,,---,0.09,VWS V14.01,2013-02-20 04:46:00,
2013-02-19 23:50:00,26.5,16.3,29.95,ENE,70,11.0,17.0,65,0.00,,---,0.09,VWS V14.01,2013-02-20 04:50:00,
2013-02-19 23:51:00,26.5,16.3,29.96,ESE,103,2.0,11.0,65,0.00,,---,0.09,VWS V14.01,2013-02-20 04:51:00,